sensor_id;sensor_type;location;lat;lon;timestamp;pressure;altitude;pressure_sealevel;temperature;humidity
73941;BME280;62294;48.554;10.202;2022-08-19T00:01:57;95646.78;;;18.26;87.10
73941;BME280;62294;48.554;10.202;2022-08-19T00:04:29;95646.78;;;18.21;87.05
73941;BME280;62294;48.554;10.202;2022-08-19T00:06:56;95647.59;;;18.22;86.94
73941;BME280;62294;48.554;10.202;2022-08-19T00:09:23;95641.91;;;18.33;86.63
73941;BME280;62294;48.554;10.202;2022-08-19T00:11:51;95640.03;;;18.29;86.39
73941;BME280;62294;48.554;10.202;2022-08-19T00:14:19;95638.72;;;18.21;85.58
73941;BME280;62294;48.554;10.202;2022-08-19T00:16:47;95633.41;;;18.11;85.31
73941;BME280;62294;48.554;10.202;2022-08-19T00:19:15;95640.97;;;17.99;85.94
73941;BME280;62294;48.554;10.202;2022-08-19T00:21:42;95637.19;;;18.00;85.40
73941;BME280;62294;48.554;10.202;2022-08-19T00:24:11;95623.28;;;17.88;84.66
73941;BME280;62294;48.554;10.202;2022-08-19T00:26:39;95623.81;;;17.85;85.17
73941;BME280;62294;48.554;10.202;2022-08-19T00:29:10;95627.56;;;17.89;84.94
73941;BME280;62294;48.554;10.202;2022-08-19T00:31:38;95630.78;;;17.91;84.94
73941;BME280;62294;48.554;10.202;2022-08-19T00:34:04;95623.88;;;17.75;85.14
73941;BME280;62294;48.554;10.202;2022-08-19T00:36:31;95633.28;;;17.67;85.47
73941;BME280;62294;48.554;10.202;2022-08-19T00:38:58;95630.59;;;17.73;85.51
73941;BME280;62294;48.554;10.202;2022-08-19T00:41:25;95635.16;;;17.67;85.63
73941;BME280;62294;48.554;10.202;2022-08-19T00:44:08;95628.69;;;17.73;85.36
73941;BME280;62294;48.554;10.202;2022-08-19T00:46:37;95632.47;;;17.72;84.99
73941;BME280;62294;48.554;10.202;2022-08-19T00:49:27;95636.22;;;17.66;85.58
73941;BME280;62294;48.554;10.202;2022-08-19T00:52:02;95635.16;;;17.67;85.57
73941;BME280;62294;48.554;10.202;2022-08-19T00:54:30;95639.50;;;17.58;85.68
73941;BME280;62294;48.554;10.202;2022-08-19T00:56:59;95635.19;;;17.62;85.88
73941;BME280;62294;48.554;10.202;2022-08-19T00:59:27;95634.38;;;17.61;86.02
73941;BME280;62294;48.554;10.202;2022-08-19T01:02:15;95644.06;;;17.62;85.88
73941;BME280;62294;48.554;10.202;2022-08-19T01:04:42;95635.19;;;17.62;85.83
73941;BME280;62294;48.554;10.202;2022-08-19T01:07:09;95640.56;;;17.62;85.92
73941;BME280;62294;48.554;10.202;2022-08-19T01:09:40;95641.13;;;17.59;86.05
73941;BME280;62294;48.554;10.202;2022-08-19T01:12:07;95637.09;;;17.56;85.88
73941;BME280;62294;48.554;10.202;2022-08-19T01:14:36;95645.41;;;17.55;86.58
73941;BME280;62294;48.554;10.202;2022-08-19T01:17:06;95647.03;;;17.56;86.15
73941;BME280;62294;48.554;10.202;2022-08-19T01:19:36;95646.50;;;17.54;86.45
73941;BME280;62294;48.554;10.202;2022-08-19T01:22:31;95655.09;;;17.41;86.64
73941;BME280;62294;48.554;10.202;2022-08-19T01:25:01;95651.31;;;17.47;87.09
73941;BME280;62294;48.554;10.202;2022-08-19T01:27:39;95653.19;;;17.46;86.95
73941;BME280;62294;48.554;10.202;2022-08-19T01:30:09;95651.31;;;17.42;87.08
73941;BME280;62294;48.554;10.202;2022-08-19T01:32:36;95654.53;;;17.44;87.18
73941;BME280;62294;48.554;10.202;2022-08-19T01:35:04;95643.53;;;17.40;87.13
73941;BME280;62294;48.554;10.202;2022-08-19T01:37:48;95642.72;;;17.40;86.92
73941;BME280;62294;48.554;10.202;2022-08-19T01:40:16;95648.91;;;17.40;87.11
73941;BME280;62294;48.554;10.202;2022-08-19T01:42:43;95650.78;;;17.35;87.19
73941;BME280;62294;48.554;10.202;2022-08-19T01:45:09;95649.44;;;17.32;87.63
73941;BME280;62294;48.554;10.202;2022-08-19T01:47:36;95647.03;;;17.31;87.58
73941;BME280;62294;48.554;10.202;2022-08-19T01:50:05;95647.56;;;17.23;87.72
73941;BME280;62294;48.554;10.202;2022-08-19T01:52:35;95640.06;;;17.25;87.42
73941;BME280;62294;48.554;10.202;2022-08-19T01:55:04;95648.38;;;17.33;87.84
73941;BME280;62294;48.554;10.202;2022-08-19T01:57:31;95645.41;;;17.35;87.76
73941;BME280;62294;48.554;10.202;2022-08-19T01:59:57;95641.38;;;17.27;87.59
73941;BME280;62294;48.554;10.202;2022-08-19T02:02:26;95641.13;;;17.19;87.69
73941;BME280;62294;48.554;10.202;2022-08-19T02:04:52;95642.75;;;17.25;87.45
73941;BME280;62294;48.554;10.202;2022-08-19T02:07:22;95641.41;;;17.22;87.69
73941;BME280;62294;48.554;10.202;2022-08-19T02:09:49;95642.75;;;17.25;87.63
73941;BME280;62294;48.554;10.202;2022-08-19T02:12:16;95661.81;;;17.23;87.34
73941;BME280;62294;48.554;10.202;2022-08-19T02:14:43;95663.16;;;17.21;87.67
73941;BME280;62294;48.554;10.202;2022-08-19T02:17:09;95662.91;;;17.22;87.17
73941;BME280;62294;48.554;10.202;2022-08-19T02:19:36;95665.03;;;17.25;87.45
73941;BME280;62294;48.554;10.202;2022-08-19T02:22:06;95657.78;;;17.26;87.34
73941;BME280;62294;48.554;10.202;2022-08-19T02:24:33;95655.63;;;17.28;87.59
73941;BME280;62294;48.554;10.202;2022-08-19T02:27:00;95656.72;;;17.32;87.61
73941;BME280;62294;48.554;10.202;2022-08-19T02:29:26;95643.81;;;17.24;87.39
73941;BME280;62294;48.554;10.202;2022-08-19T02:31:53;95642.19;;;17.23;87.81
73941;BME280;62294;48.554;10.202;2022-08-19T02:34:19;95647.06;;;17.16;87.76
73941;BME280;62294;48.554;10.202;2022-08-19T02:36:46;95645.19;;;17.11;87.57
73941;BME280;62294;48.554;10.202;2022-08-19T02:39:18;95651.34;;;17.12;88.00
73941;BME280;62294;48.554;10.202;2022-08-19T02:41:44;95634.69;;;17.15;87.79
73941;BME280;62294;48.554;10.202;2022-08-19T02:44:11;95633.63;;;17.16;87.75
73941;BME280;62294;48.554;10.202;2022-08-19T02:46:56;95631.19;;;17.14;87.70
73941;BME280;62294;48.554;10.202;2022-08-19T02:49:23;95635.22;;;17.12;87.28
73941;BME280;62294;48.554;10.202;2022-08-19T02:51:50;95635.25;;;17.01;87.80
73941;BME280;62294;48.554;10.202;2022-08-19T02:54:16;95636.06;;;17.02;87.66
73941;BME280;62294;48.554;10.202;2022-08-19T02:56:43;95640.06;;;17.10;87.76
73941;BME280;62294;48.554;10.202;2022-08-19T02:59:11;95632.00;;;17.10;87.81
73941;BME280;62294;48.554;10.202;2022-08-19T03:01:39;95634.69;;;17.10;88.04
73941;BME280;62294;48.554;10.202;2022-08-19T03:04:09;95636.31;;;17.06;88.04
73941;BME280;62294;48.554;10.202;2022-08-19T03:06:38;95628.25;;;17.11;88.06
73941;BME280;62294;48.554;10.202;2022-08-19T03:09:04;95626.91;;;17.13;87.74
73941;BME280;62294;48.554;10.202;2022-08-19T03:11:32;95628.50;;;17.14;88.02
73941;BME280;62294;48.554;10.202;2022-08-19T03:14:01;95632.00;;;17.15;88.06
73941;BME280;62294;48.554;10.202;2022-08-19T03:16:30;95640.06;;;17.04;87.87
73941;BME280;62294;48.554;10.202;2022-08-19T03:18:59;95633.09;;;17.03;87.85
73941;BME280;62294;48.554;10.202;2022-08-19T03:21:28;95640.34;;;17.03;87.77
73941;BME280;62294;48.554;10.202;2022-08-19T03:23:57;95640.06;;;17.10;87.34
73941;BME280;62294;48.554;10.202;2022-08-19T03:26:24;95646.50;;;17.03;87.75
73941;BME280;62294;48.554;10.202;2022-08-19T03:28:51;95643.84;;;17.03;87.82
73941;BME280;62294;48.554;10.202;2022-08-19T03:31:26;95637.66;;;17.03;88.00
73941;BME280;62294;48.554;10.202;2022-08-19T03:34:23;95638.72;;;17.07;87.82
73941;BME280;62294;48.554;10.202;2022-08-19T03:36:58;95638.72;;;16.97;88.24
73941;BME280;62294;48.554;10.202;2022-08-19T03:39:25;95647.06;;;17.06;88.18
73941;BME280;62294;48.554;10.202;2022-08-19T03:41:53;95646.78;;;17.12;88.57
73941;BME280;62294;48.554;10.202;2022-08-19T03:44:42;95645.69;;;17.18;87.82
73941;BME280;62294;48.554;10.202;2022-08-19T03:47:11;95645.72;;;17.13;87.78
73941;BME280;62294;48.554;10.202;2022-08-19T03:49:42;95639.78;;;17.16;88.24
73941;BME280;62294;48.554;10.202;2022-08-19T03:52:08;95642.22;;;17.18;88.11
73941;BME280;62294;48.554;10.202;2022-08-19T03:54:35;95637.66;;;17.13;88.30
73941;BME280;62294;48.554;10.202;2022-08-19T03:57:02;95635.75;;;17.19;87.73
73941;BME280;62294;48.554;10.202;2022-08-19T03:59:33;95639.25;;;17.19;88.16
73941;BME280;62294;48.554;10.202;2022-08-19T04:02:03;95643.81;;;17.19;87.78
73941;BME280;62294;48.554;10.202;2022-08-19T04:04:31;95642.75;;;17.15;87.88
73941;BME280;62294;48.554;10.202;2022-08-19T04:06:58;95635.78;;;17.03;88.36
73941;BME280;62294;48.554;10.202;2022-08-19T04:09:25;95628.53;;;17.04;88.41
73941;BME280;62294;48.554;10.202;2022-08-19T04:11:54;95628.78;;;17.08;87.93
73941;BME280;62294;48.554;10.202;2022-08-19T04:14:24;95628.00;;;17.02;88.31
73941;BME280;62294;48.554;10.202;2022-08-19T04:16:52;95625.31;;;16.87;88.52
73941;BME280;62294;48.554;10.202;2022-08-19T04:19:19;95629.31;;;16.79;89.09
73941;BME280;62294;48.554;10.202;2022-08-19T04:21:48;95628.22;;;16.70;88.74
73941;BME280;62294;48.554;10.202;2022-08-19T04:24:17;95629.88;;;16.81;88.72
73941;BME280;62294;48.554;10.202;2022-08-19T04:26:43;95624.75;;;16.85;88.91
73941;BME280;62294;48.554;10.202;2022-08-19T04:29:13;95631.19;;;16.89;88.74
73941;BME280;62294;48.554;10.202;2022-08-19T04:31:42;95637.13;;;17.01;88.69
73941;BME280;62294;48.554;10.202;2022-08-19T04:34:11;95636.84;;;16.92;88.43
73941;BME280;62294;48.554;10.202;2022-08-19T04:36:40;95645.97;;;17.01;88.43
73941;BME280;62294;48.554;10.202;2022-08-19T04:39:14;95648.13;;;16.99;88.44
73941;BME280;62294;48.554;10.202;2022-08-19T04:41:41;95638.47;;;17.09;87.97
73941;BME280;62294;48.554;10.202;2022-08-19T04:44:26;95641.69;;;17.11;87.78
73941;BME280;62294;48.554;10.202;2022-08-19T04:46:59;95641.44;;;17.02;87.65
73941;BME280;62294;48.554;10.202;2022-08-19T04:49:26;95650.25;;;17.02;88.36
73941;BME280;62294;48.554;10.202;2022-08-19T04:51:54;95652.13;;;17.07;87.97
73941;BME280;62294;48.554;10.202;2022-08-19T04:54:23;95655.13;;;16.90;87.86
73941;BME280;62294;48.554;10.202;2022-08-19T04:57:07;95654.53;;;16.88;88.53
73941;BME280;62294;48.554;10.202;2022-08-19T04:59:37;95668.50;;;16.75;88.94
73941;BME280;62294;48.554;10.202;2022-08-19T05:02:06;95666.38;;;16.82;88.66
73941;BME280;62294;48.554;10.202;2022-08-19T05:04:33;95665.81;;;16.75;88.21
73941;BME280;62294;48.554;10.202;2022-08-19T05:07:00;95673.84;;;16.70;88.29
73941;BME280;62294;48.554;10.202;2022-08-19T05:09:29;95675.50;;;16.76;88.42
73941;BME280;62294;48.554;10.202;2022-08-19T05:12:16;95684.63;;;16.80;88.40
73941;BME280;62294;48.554;10.202;2022-08-19T05:14:44;95690.25;;;16.79;88.26
73941;BME280;62294;48.554;10.202;2022-08-19T05:17:11;95692.69;;;16.85;88.30
73941;BME280;62294;48.554;10.202;2022-08-19T05:19:52;95685.69;;;16.89;88.07
73941;BME280;62294;48.554;10.202;2022-08-19T05:22:38;95702.09;;;16.88;87.76
73941;BME280;62294;48.554;10.202;2022-08-19T05:25:08;95707.19;;;16.94;87.87
73941;BME280;62294;48.554;10.202;2022-08-19T05:27:39;95703.16;;;16.97;87.77
73941;BME280;62294;48.554;10.202;2022-08-19T05:30:06;95709.34;;;16.92;87.78
73941;BME280;62294;48.554;10.202;2022-08-19T05:32:33;95711.75;;;16.99;88.13
73941;BME280;62294;48.554;10.202;2022-08-19T05:34:59;95710.94;;;16.98;87.89
73941;BME280;62294;48.554;10.202;2022-08-19T05:37:26;95703.41;;;16.95;87.31
73941;BME280;62294;48.554;10.202;2022-08-19T05:39:54;95708.00;;;16.95;87.64
73941;BME280;62294;48.554;10.202;2022-08-19T05:42:21;95715.22;;;17.04;87.71
73941;BME280;62294;48.554;10.202;2022-08-19T05:44:49;95715.78;;;16.96;87.71
73941;BME280;62294;48.554;10.202;2022-08-19T05:47:17;95726.25;;;16.88;88.03
73941;BME280;62294;48.554;10.202;2022-08-19T05:49:46;95722.44;;;16.74;88.47
73941;BME280;62294;48.554;10.202;2022-08-19T05:52:15;95722.97;;;16.76;88.73
73941;BME280;62294;48.554;10.202;2022-08-19T05:54:45;95715.19;;;16.79;88.48
73941;BME280;62294;48.554;10.202;2022-08-19T05:57:18;95723.25;;;16.84;88.44
73941;BME280;62294;48.554;10.202;2022-08-19T05:59:44;95717.88;;;16.79;88.33
73941;BME280;62294;48.554;10.202;2022-08-19T06:02:28;95713.06;;;16.91;87.97
73941;BME280;62294;48.554;10.202;2022-08-19T06:04:56;95714.16;;;16.85;87.36
73941;BME280;62294;48.554;10.202;2022-08-19T06:07:23;95716.28;;;16.88;88.03
73941;BME280;62294;48.554;10.202;2022-08-19T06:09:50;95711.19;;;16.82;87.91
73941;BME280;62294;48.554;10.202;2022-08-19T06:12:28;95707.69;;;16.76;87.94
73941;BME280;62294;48.554;10.202;2022-08-19T06:14:55;95704.75;;;16.78;87.89
73941;BME280;62294;48.554;10.202;2022-08-19T06:17:26;95707.72;;;16.81;88.15
73941;BME280;62294;48.554;10.202;2022-08-19T06:19:53;95694.81;;;16.88;87.76
73941;BME280;62294;48.554;10.202;2022-08-19T06:22:19;95702.31;;;16.86;87.76
73941;BME280;62294;48.554;10.202;2022-08-19T06:24:46;95692.94;;;16.84;87.72
73941;BME280;62294;48.554;10.202;2022-08-19T06:27:12;95687.81;;;16.77;88.40
73941;BME280;62294;48.554;10.202;2022-08-19T06:29:39;95692.38;;;16.82;88.16
73941;BME280;62294;48.554;10.202;2022-08-19T06:32:06;95698.84;;;16.91;88.37
73941;BME280;62294;48.554;10.202;2022-08-19T06:34:34;95695.63;;;16.94;88.45
73941;BME280;62294;48.554;10.202;2022-08-19T06:37:02;95689.44;;;16.93;88.08
73941;BME280;62294;48.554;10.202;2022-08-19T06:39:32;95697.53;;;17.03;88.00
73941;BME280;62294;48.554;10.202;2022-08-19T06:42:01;95696.44;;;17.04;88.26
73941;BME280;62294;48.554;10.202;2022-08-19T06:44:32;95702.91;;;17.03;87.66
73941;BME280;62294;48.554;10.202;2022-08-19T06:47:07;95721.16;;;17.01;87.93
73941;BME280;62294;48.554;10.202;2022-08-19T06:49:48;95714.72;;;16.97;87.49
73941;BME280;62294;48.554;10.202;2022-08-19T06:52:14;95721.66;;;16.88;87.37
73941;BME280;62294;48.554;10.202;2022-08-19T06:54:42;95727.84;;;16.94;87.51
73941;BME280;62294;48.554;10.202;2022-08-19T06:57:21;95726.50;;;16.91;88.06
73941;BME280;62294;48.554;10.202;2022-08-19T06:59:49;95724.34;;;16.78;88.73
73941;BME280;62294;48.554;10.202;2022-08-19T07:02:15;95731.56;;;16.68;88.92
73941;BME280;62294;48.554;10.202;2022-08-19T07:04:47;95732.31;;;16.53;90.06
73941;BME280;62294;48.554;10.202;2022-08-19T07:07:20;95732.38;;;16.63;90.09
73941;BME280;62294;48.554;10.202;2022-08-19T07:09:48;95740.41;;;16.73;89.62
73941;BME280;62294;48.554;10.202;2022-08-19T07:12:29;95731.84;;;16.86;88.85
73941;BME280;62294;48.554;10.202;2022-08-19T07:15:01;95732.97;;;16.90;88.07
73941;BME280;62294;48.554;10.202;2022-08-19T07:17:28;95735.38;;;16.97;88.67
73941;BME280;62294;48.554;10.202;2022-08-19T07:19:56;95724.38;;;17.03;88.56
73941;BME280;62294;48.554;10.202;2022-08-19T07:22:30;95735.13;;;17.03;88.44
73941;BME280;62294;48.554;10.202;2022-08-19T07:24:57;95724.94;;;17.11;87.53
73941;BME280;62294;48.554;10.202;2022-08-19T07:27:24;95726.28;;;17.13;88.44
73941;BME280;62294;48.554;10.202;2022-08-19T07:29:53;95722.25;;;17.16;87.97
73941;BME280;62294;48.554;10.202;2022-08-19T07:32:23;95719.28;;;17.27;87.96
73941;BME280;62294;48.554;10.202;2022-08-19T07:34:52;95720.06;;;17.23;87.49
73941;BME280;62294;48.554;10.202;2022-08-19T07:37:19;95723.56;;;17.23;88.14
73941;BME280;62294;48.554;10.202;2022-08-19T07:39:46;95726.25;;;17.23;87.59
73941;BME280;62294;48.554;10.202;2022-08-19T07:42:13;95727.59;;;17.11;87.88
73941;BME280;62294;48.554;10.202;2022-08-19T07:44:41;95731.88;;;17.12;88.09
73941;BME280;62294;48.554;10.202;2022-08-19T07:47:16;95733.78;;;17.16;87.82
73941;BME280;62294;48.554;10.202;2022-08-19T07:50:05;95730.28;;;17.21;87.77
73941;BME280;62294;48.554;10.202;2022-08-19T07:52:33;95734.06;;;17.20;87.67
73941;BME280;62294;48.554;10.202;2022-08-19T07:55:00;95738.09;;;17.22;87.59
73941;BME280;62294;48.554;10.202;2022-08-19T07:57:29;95733.81;;;17.31;87.21
73941;BME280;62294;48.554;10.202;2022-08-19T07:59:56;95742.94;;;17.35;87.40
73941;BME280;62294;48.554;10.202;2022-08-19T08:02:22;95731.66;;;17.33;87.55
73941;BME280;62294;48.554;10.202;2022-08-19T08:04:49;95740.50;;;17.44;86.96
73941;BME280;62294;48.554;10.202;2022-08-19T08:07:34;95748.31;;;17.35;86.86
73941;BME280;62294;48.554;10.202;2022-08-19T08:10:19;95743.47;;;17.42;86.64
73941;BME280;62294;48.554;10.202;2022-08-19T08:12:49;95748.03;;;17.32;86.90
73941;BME280;62294;48.554;10.202;2022-08-19T08:15:37;95746.69;;;17.24;87.15
73941;BME280;62294;48.554;10.202;2022-08-19T08:18:09;95754.47;;;17.26;87.56
73941;BME280;62294;48.554;10.202;2022-08-19T08:20:36;95750.16;;;17.30;87.39
73941;BME280;62294;48.554;10.202;2022-08-19T08:23:03;95752.34;;;17.38;87.24
73941;BME280;62294;48.554;10.202;2022-08-19T08:25:49;95747.78;;;17.58;87.06
73941;BME280;62294;48.554;10.202;2022-08-19T08:28:17;95751.81;;;17.71;86.79
73941;BME280;62294;48.554;10.202;2022-08-19T08:30:45;95753.44;;;17.72;86.22
73941;BME280;62294;48.554;10.202;2022-08-19T08:33:21;95748.06;;;17.77;86.23
73941;BME280;62294;48.554;10.202;2022-08-19T08:36:00;95748.06;;;17.72;85.68
73941;BME280;62294;48.554;10.202;2022-08-19T08:38:29;95748.59;;;17.74;86.07
73941;BME280;62294;48.554;10.202;2022-08-19T08:41:12;95747.22;;;17.71;86.06
73941;BME280;62294;48.554;10.202;2022-08-19T08:43:49;95754.47;;;17.66;85.81
73941;BME280;62294;48.554;10.202;2022-08-19T08:46:23;95749.38;;;17.59;86.54
73941;BME280;62294;48.554;10.202;2022-08-19T08:52:11;95763.06;;;17.48;86.64
73941;BME280;62294;48.554;10.202;2022-08-19T08:54:42;95760.91;;;17.35;86.94
73941;BME280;62294;48.554;10.202;2022-08-19T08:57:29;95753.41;;;17.42;87.64
73941;BME280;62294;48.554;10.202;2022-08-19T09:00:10;95756.09;;;17.47;87.62
73941;BME280;62294;48.554;10.202;2022-08-19T09:02:41;95761.47;;;17.57;87.43
73941;BME280;62294;48.554;10.202;2022-08-19T09:05:09;95766.88;;;17.72;86.94
73941;BME280;62294;48.554;10.202;2022-08-19T09:13:11;95768.69;;;18.02;86.48
73941;BME280;62294;48.554;10.202;2022-08-19T09:15:48;95771.44;;;17.66;86.20
73941;BME280;62294;48.554;10.202;2022-08-19T09:18:15;95771.19;;;17.68;86.43
73941;BME280;62294;48.554;10.202;2022-08-19T09:20:45;95769.53;;;17.87;86.36
73941;BME280;62294;48.554;10.202;2022-08-19T09:23:13;95771.09;;;18.08;86.06
73941;BME280;62294;48.554;10.202;2022-08-19T09:25:40;95767.31;;;18.24;86.06
73941;BME280;62294;48.554;10.202;2022-08-19T09:28:07;95760.56;;;18.27;84.95
73941;BME280;62294;48.554;10.202;2022-08-19T09:30:47;95759.16;;;18.44;85.24
73941;BME280;62294;48.554;10.202;2022-08-19T09:33:14;95755.94;;;18.53;85.23
73941;BME280;62294;48.554;10.202;2022-08-19T09:35:42;95756.41;;;18.65;83.55
73941;BME280;62294;48.554;10.202;2022-08-19T09:38:19;95762.28;;;18.77;84.31
73941;BME280;62294;48.554;10.202;2022-08-19T09:40:46;95756.53;;;18.93;83.35
73941;BME280;62294;48.554;10.202;2022-08-19T09:43:12;95751.41;;;18.92;83.26
73941;BME280;62294;48.554;10.202;2022-08-19T09:45:39;95751.03;;;18.65;83.09
73941;BME280;62294;48.554;10.202;2022-08-19T09:48:06;95754.59;;;18.40;83.05
73941;BME280;62294;48.554;10.202;2022-08-19T09:50:35;95759.44;;;18.43;84.39
73941;BME280;62294;48.554;10.202;2022-08-19T09:53:17;95748.94;;;18.47;84.43
73941;BME280;62294;48.554;10.202;2022-08-19T09:55:44;95744.59;;;18.56;84.15
73941;BME280;62294;48.554;10.202;2022-08-19T09:58:11;95761.78;;;18.65;83.43
73941;BME280;62294;48.554;10.202;2022-08-19T10:00:38;95764.81;;;18.43;82.70
73941;BME280;62294;48.554;10.202;2022-08-19T10:03:04;95768.88;;;18.40;84.08
73941;BME280;62294;48.554;10.202;2022-08-19T10:05:32;95765.66;;;18.33;83.76
73941;BME280;62294;48.554;10.202;2022-08-19T10:08:23;95779.13;;;18.23;83.97
73941;BME280;62294;48.554;10.202;2022-08-19T10:10:52;95785.06;;;18.20;83.86
73941;BME280;62294;48.554;10.202;2022-08-19T10:13:23;95785.09;;;18.05;84.54
73941;BME280;62294;48.554;10.202;2022-08-19T10:15:52;95788.59;;;18.11;84.96
73941;BME280;62294;48.554;10.202;2022-08-19T10:18:22;95798.81;;;18.04;84.70
73941;BME280;62294;48.554;10.202;2022-08-19T10:20:51;95789.97;;;17.73;85.38
73941;BME280;62294;48.554;10.202;2022-08-19T10:23:21;95798.03;;;17.73;85.13
73941;BME280;62294;48.554;10.202;2022-08-19T10:25:48;95795.63;;;17.66;85.87
73941;BME280;62294;48.554;10.202;2022-08-19T10:28:16;95795.88;;;17.55;86.30
73941;BME280;62294;48.554;10.202;2022-08-19T10:30:45;95800.19;;;17.51;86.85
73941;BME280;62294;48.554;10.202;2022-08-19T10:33:11;95805.00;;;17.64;86.45
73941;BME280;62294;48.554;10.202;2022-08-19T10:35:39;95800.72;;;17.63;86.11
73941;BME280;62294;48.554;10.202;2022-08-19T10:38:22;95801.28;;;17.65;86.26
73941;BME280;62294;48.554;10.202;2022-08-19T10:41:06;95805.56;;;17.71;86.01
73941;BME280;62294;48.554;10.202;2022-08-19T10:43:33;95800.19;;;17.71;86.50
73941;BME280;62294;48.554;10.202;2022-08-19T10:46:08;95796.97;;;17.79;86.02
73941;BME280;62294;48.554;10.202;2022-08-19T10:48:42;95802.06;;;17.91;86.10
73941;BME280;62294;48.554;10.202;2022-08-19T10:51:10;95804.47;;;18.02;86.03
73941;BME280;62294;48.554;10.202;2022-08-19T10:53:56;95802.56;;;18.03;85.86
73941;BME280;62294;48.554;10.202;2022-08-19T10:56:22;95799.38;;;17.91;85.50
73941;BME280;62294;48.554;10.202;2022-08-19T10:59:08;95800.69;;;17.98;85.53
73941;BME280;62294;48.554;10.202;2022-08-19T11:01:36;95799.09;;;17.82;85.65
73941;BME280;62294;48.554;10.202;2022-08-19T11:04:03;95786.75;;;17.71;85.57
73941;BME280;62294;48.554;10.202;2022-08-19T11:06:33;95787.28;;;17.73;86.07
73941;BME280;62294;48.554;10.202;2022-08-19T11:09:00;95786.50;;;17.67;86.43
73941;BME280;62294;48.554;10.202;2022-08-19T11:11:27;95780.84;;;17.74;86.02
73941;BME280;62294;48.554;10.202;2022-08-19T11:13:54;95783.53;;;17.54;86.14
73941;BME280;62294;48.554;10.202;2022-08-19T11:16:23;95788.88;;;17.49;87.01
73941;BME280;62294;48.554;10.202;2022-08-19T11:18:53;95790.72;;;17.43;86.83
73941;BME280;62294;48.554;10.202;2022-08-19T11:21:21;95788.88;;;17.44;86.89
73941;BME280;62294;48.554;10.202;2022-08-19T11:23:51;95777.06;;;17.45;86.66
73941;BME280;62294;48.554;10.202;2022-08-19T11:26:19;95787.25;;;17.48;86.97
73941;BME280;62294;48.554;10.202;2022-08-19T11:28:47;95785.13;;;17.65;86.69
73941;BME280;62294;48.554;10.202;2022-08-19T11:31:19;95787.28;;;17.63;86.43
73941;BME280;62294;48.554;10.202;2022-08-19T11:33:49;95792.41;;;17.69;86.26
73941;BME280;62294;48.554;10.202;2022-08-19T11:36:22;95792.38;;;17.85;86.45
73941;BME280;62294;48.554;10.202;2022-08-19T11:38:49;95791.06;;;17.77;86.50
73941;BME280;62294;48.554;10.202;2022-08-19T11:41:17;95791.59;;;17.69;86.86
73941;BME280;62294;48.554;10.202;2022-08-19T11:43:45;95797.50;;;17.86;86.41
73941;BME280;62294;48.554;10.202;2022-08-19T11:46:14;95799.66;;;17.79;86.02
73941;BME280;62294;48.554;10.202;2022-08-19T11:48:41;95793.75;;;17.77;85.63
73941;BME280;62294;48.554;10.202;2022-08-19T11:51:11;95798.59;;;17.70;86.42
73941;BME280;62294;48.554;10.202;2022-08-19T11:53:38;95799.91;;;17.47;86.55
73941;BME280;62294;48.554;10.202;2022-08-19T11:56:06;95792.06;;;17.21;87.98
73941;BME280;62294;48.554;10.202;2022-08-19T11:58:34;95795.28;;;17.28;87.96
73941;BME280;62294;48.554;10.202;2022-08-19T12:01:01;95794.22;;;17.44;87.68
73941;BME280;62294;48.554;10.202;2022-08-19T12:03:27;95793.72;;;17.57;87.37
73941;BME280;62294;48.554;10.202;2022-08-19T12:05:54;95799.13;;;17.72;86.88
73941;BME280;62294;48.554;10.202;2022-08-19T12:08:21;95804.50;;;17.77;86.76
73941;BME280;62294;48.554;10.202;2022-08-19T12:10:47;95803.94;;;17.80;86.82
73941;BME280;62294;48.554;10.202;2022-08-19T12:13:14;95802.34;;;17.84;86.42
73941;BME280;62294;48.554;10.202;2022-08-19T12:15:46;95801.00;;;17.71;86.85
73941;BME280;62294;48.554;10.202;2022-08-19T12:18:13;95798.84;;;17.73;87.09
73941;BME280;62294;48.554;10.202;2022-08-19T12:20:42;95799.38;;;17.81;86.61
73941;BME280;62294;48.554;10.202;2022-08-19T12:23:10;95800.72;;;17.93;86.63
73941;BME280;62294;48.554;10.202;2022-08-19T12:25:37;95798.53;;;18.00;86.30
73941;BME280;62294;48.554;10.202;2022-08-19T12:28:09;95794.00;;;17.91;86.17
73941;BME280;62294;48.554;10.202;2022-08-19T12:30:37;95799.63;;;17.99;85.91
73941;BME280;62294;48.554;10.202;2022-08-19T12:33:04;95798.00;;;18.03;85.99
73941;BME280;62294;48.554;10.202;2022-08-19T12:35:31;95798.25;;;18.17;86.46
73941;BME280;62294;48.554;10.202;2022-08-19T12:37:57;95798.81;;;18.14;85.71
73941;BME280;62294;48.554;10.202;2022-08-19T12:40:25;95800.13;;;18.21;86.05
73941;BME280;62294;48.554;10.202;2022-08-19T12:42:53;95802.28;;;18.14;85.48
73941;BME280;62294;48.554;10.202;2022-08-19T12:45:19;95800.94;;;18.22;85.97
73941;BME280;62294;48.554;10.202;2022-08-19T12:47:46;95804.97;;;18.24;85.88
73941;BME280;62294;48.554;10.202;2022-08-19T12:50:15;95807.13;;;18.17;85.65
73941;BME280;62294;48.554;10.202;2022-08-19T12:52:41;95807.66;;;18.19;85.38
73941;BME280;62294;48.554;10.202;2022-08-19T12:55:09;95813.31;;;18.23;85.87
73941;BME280;62294;48.554;10.202;2022-08-19T12:57:37;95816.00;;;18.08;86.21
73941;BME280;62294;48.554;10.202;2022-08-19T13:00:08;95814.41;;;18.07;86.43
73941;BME280;62294;48.554;10.202;2022-08-19T13:02:43;95821.38;;;18.13;86.79
73941;BME280;62294;48.554;10.202;2022-08-19T13:05:22;95821.09;;;18.14;86.23
73941;BME280;62294;48.554;10.202;2022-08-19T13:07:52;95827.84;;;18.22;86.10
73941;BME280;62294;48.554;10.202;2022-08-19T13:10:24;95829.19;;;18.24;86.14
73941;BME280;62294;48.554;10.202;2022-08-19T13:12:52;95829.72;;;18.16;86.03
73941;BME280;62294;48.554;10.202;2022-08-19T13:15:20;95829.72;;;18.16;86.05